sensor_id;sensor_type;location;lat;lon;timestamp;P1;durP1;ratioP1;P2;durP2;ratioP2
11960;SDS011;6040;49.358;11.140;2022-07-04T00:00:55;2.20;;;1.87;;
11960;SDS011;6040;49.358;11.140;2022-07-04T00:03:22;1.87;;;1.73;;
11960;SDS011;6040;49.358;11.140;2022-07-04T00:05:49;1.90;;;1.70;;
11960;SDS011;6040;49.358;11.140;2022-07-04T00:08:16;2.13;;;1.83;;
11960;SDS011;6040;49.358;11.140;2022-07-04T00:10:43;2.43;;;1.70;;
11960;SDS011;6040;49.358;11.140;2022-07-04T00:13:10;2.33;;;2.00;;
11960;SDS011;6040;49.358;11.140;2022-07-04T00:15:38;2.57;;;1.90;;
11960;SDS011;6040;49.358;11.140;2022-07-04T00:18:05;2.63;;;1.90;;
11960;SDS011;6040;49.358;11.140;2022-07-04T00:20:32;2.17;;;1.97;;
11960;SDS011;6040;49.358;11.140;2022-07-04T00:22:59;1.87;;;1.73;;
11960;SDS011;6040;49.358;11.140;2022-07-04T00:25:26;1.77;;;1.67;;
11960;SDS011;6040;49.358;11.140;2022-07-04T00:27:53;3.43;;;2.00;;
11960;SDS011;6040;49.358;11.140;2022-07-04T00:30:20;1.90;;;1.80;;
11960;SDS011;6040;49.358;11.140;2022-07-04T00:32:48;2.10;;;2.00;;
11960;SDS011;6040;49.358;11.140;2022-07-04T00:35:15;3.10;;;2.23;;
11960;SDS011;6040;49.358;11.140;2022-07-04T00:37:45;2.93;;;1.80;;
11960;SDS011;6040;49.358;11.140;2022-07-04T00:40:12;3.10;;;2.30;;
11960;SDS011;6040;49.358;11.140;2022-07-04T00:42:39;2.67;;;1.87;;
11960;SDS011;6040;49.358;11.140;2022-07-04T00:45:06;3.67;;;2.10;;
11960;SDS011;6040;49.358;11.140;2022-07-04T00:47:34;2.00;;;1.73;;
11960;SDS011;6040;49.358;11.140;2022-07-04T00:50:02;2.17;;;2.00;;
11960;SDS011;6040;49.358;11.140;2022-07-04T00:52:29;5.10;;;2.10;;
11960;SDS011;6040;49.358;11.140;2022-07-04T00:54:57;2.20;;;2.00;;
11960;SDS011;6040;49.358;11.140;2022-07-04T00:57:25;3.13;;;2.07;;
11960;SDS011;6040;49.358;11.140;2022-07-04T00:59:52;3.57;;;2.00;;
11960;SDS011;6040;49.358;11.140;2022-07-04T01:02:19;2.23;;;2.03;;
11960;SDS011;6040;49.358;11.140;2022-07-04T01:04:46;2.13;;;1.90;;
11960;SDS011;6040;49.358;11.140;2022-07-04T01:07:14;2.43;;;1.80;;
11960;SDS011;6040;49.358;11.140;2022-07-04T01:09:41;2.87;;;1.90;;
11960;SDS011;6040;49.358;11.140;2022-07-04T01:12:09;2.23;;;2.03;;
11960;SDS011;6040;49.358;11.140;2022-07-04T01:14:36;2.20;;;2.00;;
11960;SDS011;6040;49.358;11.140;2022-07-04T01:17:04;2.33;;;1.70;;
11960;SDS011;6040;49.358;11.140;2022-07-04T01:19:31;2.33;;;2.03;;
11960;SDS011;6040;49.358;11.140;2022-07-04T01:21:59;3.47;;;2.40;;
11960;SDS011;6040;49.358;11.140;2022-07-04T01:24:31;2.23;;;2.07;;
11960;SDS011;6040;49.358;11.140;2022-07-04T01:26:58;2.07;;;1.80;;
11960;SDS011;6040;49.358;11.140;2022-07-04T01:29:25;2.37;;;2.17;;
11960;SDS011;6040;49.358;11.140;2022-07-04T01:31:52;3.87;;;2.20;;
11960;SDS011;6040;49.358;11.140;2022-07-04T01:34:19;2.97;;;1.87;;
11960;SDS011;6040;49.358;11.140;2022-07-04T01:36:46;2.17;;;1.97;;
11960;SDS011;6040;49.358;11.140;2022-07-04T01:39:14;2.90;;;2.00;;
11960;SDS011;6040;49.358;11.140;2022-07-04T01:41:41;2.20;;;2.00;;
11960;SDS011;6040;49.358;11.140;2022-07-04T01:44:08;2.20;;;1.90;;
11960;SDS011;6040;49.358;11.140;2022-07-04T01:46:35;2.57;;;2.10;;
11960;SDS011;6040;49.358;11.140;2022-07-04T01:49:02;2.20;;;2.00;;
11960;SDS011;6040;49.358;11.140;2022-07-04T01:51:29;2.20;;;2.00;;
11960;SDS011;6040;49.358;11.140;2022-07-04T01:53:55;2.10;;;2.00;;
11960;SDS011;6040;49.358;11.140;2022-07-04T01:56:24;2.20;;;2.00;;
11960;SDS011;6040;49.358;11.140;2022-07-04T01:58:51;2.30;;;2.10;;
11960;SDS011;6040;49.358;11.140;2022-07-04T02:01:18;3.37;;;2.03;;
11960;SDS011;6040;49.358;11.140;2022-07-04T02:03:55;2.00;;;1.90;;
11960;SDS011;6040;49.358;11.140;2022-07-04T02:06:22;2.10;;;1.90;;
11960;SDS011;6040;49.358;11.140;2022-07-04T02:08:50;1.83;;;1.70;;
11960;SDS011;6040;49.358;11.140;2022-07-04T02:11:35;2.67;;;1.90;;
11960;SDS011;6040;49.358;11.140;2022-07-04T02:14:20;1.73;;;1.63;;
11960;SDS011;6040;49.358;11.140;2022-07-04T02:16:47;2.37;;;1.90;;
11960;SDS011;6040;49.358;11.140;2022-07-04T02:19:14;2.97;;;2.00;;
11960;SDS011;6040;49.358;11.140;2022-07-04T02:21:41;5.53;;;1.90;;
11960;SDS011;6040;49.358;11.140;2022-07-04T02:24:08;2.13;;;1.93;;
11960;SDS011;6040;49.358;11.140;2022-07-04T02:26:36;2.67;;;1.80;;
11960;SDS011;6040;49.358;11.140;2022-07-04T02:29:03;2.23;;;2.00;;
11960;SDS011;6040;49.358;11.140;2022-07-04T02:31:30;2.43;;;2.00;;
11960;SDS011;6040;49.358;11.140;2022-07-04T02:33:57;2.83;;;2.10;;
11960;SDS011;6040;49.358;11.140;2022-07-04T02:36:24;2.90;;;2.10;;
11960;SDS011;6040;49.358;11.140;2022-07-04T02:38:51;2.23;;;2.07;;
11960;SDS011;6040;49.358;11.140;2022-07-04T02:41:18;2.00;;;1.90;;
11960;SDS011;6040;49.358;11.140;2022-07-04T02:43:46;2.13;;;1.93;;
11960;SDS011;6040;49.358;11.140;2022-07-04T02:46:13;2.13;;;1.90;;
11960;SDS011;6040;49.358;11.140;2022-07-04T02:48:39;2.53;;;1.80;;
11960;SDS011;6040;49.358;11.140;2022-07-04T02:51:06;2.20;;;2.10;;
11960;SDS011;6040;49.358;11.140;2022-07-04T02:53:33;3.87;;;2.10;;
11960;SDS011;6040;49.358;11.140;2022-07-04T02:56:00;3.40;;;2.27;;
11960;SDS011;6040;49.358;11.140;2022-07-04T02:58:28;2.20;;;2.00;;
11960;SDS011;6040;49.358;11.140;2022-07-04T03:00:57;2.10;;;1.90;;
11960;SDS011;6040;49.358;11.140;2022-07-04T03:03:24;3.67;;;2.00;;
11960;SDS011;6040;49.358;11.140;2022-07-04T03:05:51;2.10;;;2.00;;
11960;SDS011;6040;49.358;11.140;2022-07-04T03:08:19;2.10;;;1.90;;
11960;SDS011;6040;49.358;11.140;2022-07-04T03:10:46;3.33;;;2.17;;
11960;SDS011;6040;49.358;11.140;2022-07-04T03:13:14;4.63;;;2.17;;
11960;SDS011;6040;49.358;11.140;2022-07-04T03:15:41;3.30;;;2.10;;
11960;SDS011;6040;49.358;11.140;2022-07-04T03:18:10;1.90;;;1.80;;
11960;SDS011;6040;49.358;11.140;2022-07-04T03:20:37;2.20;;;2.00;;
11960;SDS011;6040;49.358;11.140;2022-07-04T03:23:04;2.80;;;2.10;;
11960;SDS011;6040;49.358;11.140;2022-07-04T03:25:34;2.17;;;1.97;;
11960;SDS011;6040;49.358;11.140;2022-07-04T03:28:02;2.10;;;1.90;;
11960;SDS011;6040;49.358;11.140;2022-07-04T03:30:29;2.17;;;1.97;;
11960;SDS011;6040;49.358;11.140;2022-07-04T03:32:56;1.90;;;1.80;;
11960;SDS011;6040;49.358;11.140;2022-07-04T03:35:24;2.20;;;2.00;;
11960;SDS011;6040;49.358;11.140;2022-07-04T03:37:51;2.47;;;1.90;;
11960;SDS011;6040;49.358;11.140;2022-07-04T03:40:18;3.00;;;2.03;;
11960;SDS011;6040;49.358;11.140;2022-07-04T03:42:45;3.03;;;1.83;;
11960;SDS011;6040;49.358;11.140;2022-07-04T03:45:13;2.67;;;2.00;;
11960;SDS011;6040;49.358;11.140;2022-07-04T03:47:40;2.53;;;1.90;;
11960;SDS011;6040;49.358;11.140;2022-07-04T03:50:07;2.37;;;1.90;;
11960;SDS011;6040;49.358;11.140;2022-07-04T03:52:36;2.17;;;1.97;;
11960;SDS011;6040;49.358;11.140;2022-07-04T03:55:03;2.10;;;1.90;;
11960;SDS011;6040;49.358;11.140;2022-07-04T03:57:30;3.03;;;2.27;;
11960;SDS011;6040;49.358;11.140;2022-07-04T03:59:57;3.97;;;2.37;;
11960;SDS011;6040;49.358;11.140;2022-07-04T04:02:24;5.53;;;2.10;;
11960;SDS011;6040;49.358;11.140;2022-07-04T04:04:51;3.00;;;2.00;;
11960;SDS011;6040;49.358;11.140;2022-07-04T04:07:36;2.43;;;2.10;;
11960;SDS011;6040;49.358;11.140;2022-07-04T04:10:04;4.80;;;2.00;;
11960;SDS011;6040;49.358;11.140;2022-07-04T04:12:31;3.63;;;2.23;;
11960;SDS011;6040;49.358;11.140;2022-07-04T04:14:58;2.60;;;2.03;;
11960;SDS011;6040;49.358;11.140;2022-07-04T04:17:25;2.60;;;2.00;;
11960;SDS011;6040;49.358;11.140;2022-07-04T04:19:52;2.30;;;2.10;;
11960;SDS011;6040;49.358;11.140;2022-07-04T04:22:19;2.30;;;2.10;;
11960;SDS011;6040;49.358;11.140;2022-07-04T04:24:47;6.10;;;2.00;;
11960;SDS011;6040;49.358;11.140;2022-07-04T04:30:36;2.80;;;2.40;;
11960;SDS011;6040;49.358;11.140;2022-07-04T04:33:03;2.30;;;2.10;;
11960;SDS011;6040;49.358;11.140;2022-07-04T04:35:30;2.50;;;2.30;;
11960;SDS011;6040;49.358;11.140;2022-07-04T04:37:57;2.70;;;2.20;;
11960;SDS011;6040;49.358;11.140;2022-07-04T04:40:25;3.43;;;2.23;;
11960;SDS011;6040;49.358;11.140;2022-07-04T04:42:52;3.73;;;2.13;;
11960;SDS011;6040;49.358;11.140;2022-07-04T04:45:19;2.27;;;2.07;;
11960;SDS011;6040;49.358;11.140;2022-07-04T04:47:46;2.60;;;2.30;;
11960;SDS011;6040;49.358;11.140;2022-07-04T04:50:13;2.57;;;2.30;;
11960;SDS011;6040;49.358;11.140;2022-07-04T04:52:40;2.50;;;2.30;;
11960;SDS011;6040;49.358;11.140;2022-07-04T04:55:07;4.73;;;2.10;;
11960;SDS011;6040;49.358;11.140;2022-07-04T04:57:36;3.10;;;2.30;;
11960;SDS011;6040;49.358;11.140;2022-07-04T05:00:03;4.53;;;2.10;;
11960;SDS011;6040;49.358;11.140;2022-07-04T05:02:31;3.67;;;2.67;;
11960;SDS011;6040;49.358;11.140;2022-07-04T05:04:58;3.50;;;2.27;;
11960;SDS011;6040;49.358;11.140;2022-07-04T05:07:24;2.63;;;2.17;;
11960;SDS011;6040;49.358;11.140;2022-07-04T05:09:51;3.20;;;2.20;;
11960;SDS011;6040;49.358;11.140;2022-07-04T05:12:23;2.83;;;2.07;;
11960;SDS011;6040;49.358;11.140;2022-07-04T05:14:51;2.30;;;2.10;;
11960;SDS011;6040;49.358;11.140;2022-07-04T05:17:18;4.77;;;2.20;;
11960;SDS011;6040;49.358;11.140;2022-07-04T05:19:45;3.17;;;2.17;;
11960;SDS011;6040;49.358;11.140;2022-07-04T05:22:13;5.07;;;1.90;;
11960;SDS011;6040;49.358;11.140;2022-07-04T05:24:40;2.27;;;2.07;;
11960;SDS011;6040;49.358;11.140;2022-07-04T05:27:07;3.57;;;2.07;;
11960;SDS011;6040;49.358;11.140;2022-07-04T05:29:34;2.60;;;2.00;;
11960;SDS011;6040;49.358;11.140;2022-07-04T05:32:03;3.40;;;2.10;;
11960;SDS011;6040;49.358;11.140;2022-07-04T05:34:30;3.30;;;1.90;;
11960;SDS011;6040;49.358;11.140;2022-07-04T05:36:57;2.20;;;1.73;;
11960;SDS011;6040;49.358;11.140;2022-07-04T05:39:23;1.70;;;1.60;;
11960;SDS011;6040;49.358;11.140;2022-07-04T05:41:50;3.67;;;1.60;;
11960;SDS011;6040;49.358;11.140;2022-07-04T05:44:17;3.97;;;1.90;;
11960;SDS011;6040;49.358;11.140;2022-07-04T05:46:44;1.60;;;1.50;;
11960;SDS011;6040;49.358;11.140;2022-07-04T05:49:12;3.07;;;2.03;;
11960;SDS011;6040;49.358;11.140;2022-07-04T05:51:39;3.53;;;1.80;;
11960;SDS011;6040;49.358;11.140;2022-07-04T05:54:06;2.30;;;1.60;;
11960;SDS011;6040;49.358;11.140;2022-07-04T05:56:33;4.67;;;1.73;;
11960;SDS011;6040;49.358;11.140;2022-07-04T05:59:00;4.07;;;1.43;;
11960;SDS011;6040;49.358;11.140;2022-07-04T06:01:27;2.10;;;1.70;;
11960;SDS011;6040;49.358;11.140;2022-07-04T06:03:53;1.60;;;1.50;;
11960;SDS011;6040;49.358;11.140;2022-07-04T06:06:22;2.73;;;1.70;;
11960;SDS011;6040;49.358;11.140;2022-07-04T06:08:48;4.30;;;1.80;;
11960;SDS011;6040;49.358;11.140;2022-07-04T06:11:15;5.73;;;1.63;;
11960;SDS011;6040;49.358;11.140;2022-07-04T06:13:43;10.27;;;2.63;;
11960;SDS011;6040;49.358;11.140;2022-07-04T06:16:10;2.93;;;1.60;;
11960;SDS011;6040;49.358;11.140;2022-07-04T06:18:37;5.13;;;1.90;;
11960;SDS011;6040;49.358;11.140;2022-07-04T06:21:04;2.07;;;1.63;;
11960;SDS011;6040;49.358;11.140;2022-07-04T06:23:32;3.17;;;1.80;;
11960;SDS011;6040;49.358;11.140;2022-07-04T06:25:59;7.70;;;1.90;;
11960;SDS011;6040;49.358;11.140;2022-07-04T06:28:26;4.40;;;1.77;;
11960;SDS011;6040;49.358;11.140;2022-07-04T06:30:53;5.20;;;2.07;;
11960;SDS011;6040;49.358;11.140;2022-07-04T06:33:20;3.13;;;1.80;;
11960;SDS011;6040;49.358;11.140;2022-07-04T06:35:46;3.20;;;1.70;;
11960;SDS011;6040;49.358;11.140;2022-07-04T06:38:20;2.50;;;1.80;;
11960;SDS011;6040;49.358;11.140;2022-07-04T06:40:50;1.97;;;1.70;;
11960;SDS011;6040;49.358;11.140;2022-07-04T06:43:19;4.43;;;1.70;;
11960;SDS011;6040;49.358;11.140;2022-07-04T06:45:45;2.60;;;1.60;;
11960;SDS011;6040;49.358;11.140;2022-07-04T06:48:12;6.73;;;1.83;;
11960;SDS011;6040;49.358;11.140;2022-07-04T06:50:39;3.10;;;1.70;;
11960;SDS011;6040;49.358;11.140;2022-07-04T06:53:06;5.40;;;1.60;;
11960;SDS011;6040;49.358;11.140;2022-07-04T06:55:34;5.07;;;1.67;;
11960;SDS011;6040;49.358;11.140;2022-07-04T06:58:03;4.33;;;1.67;;
11960;SDS011;6040;49.358;11.140;2022-07-04T07:00:31;4.87;;;1.70;;
11960;SDS011;6040;49.358;11.140;2022-07-04T07:02:59;3.03;;;1.70;;
11960;SDS011;6040;49.358;11.140;2022-07-04T07:05:27;2.97;;;1.70;;
11960;SDS011;6040;49.358;11.140;2022-07-04T07:07:54;3.20;;;1.70;;
11960;SDS011;6040;49.358;11.140;2022-07-04T07:10:21;3.17;;;1.80;;
11960;SDS011;6040;49.358;11.140;2022-07-04T07:12:48;3.13;;;1.80;;
11960;SDS011;6040;49.358;11.140;2022-07-04T07:15:17;2.43;;;1.73;;
11960;SDS011;6040;49.358;11.140;2022-07-04T07:17:44;2.97;;;1.63;;
11960;SDS011;6040;49.358;11.140;2022-07-04T07:20:12;2.40;;;1.80;;
11960;SDS011;6040;49.358;11.140;2022-07-04T07:22:39;1.90;;;1.77;;
11960;SDS011;6040;49.358;11.140;2022-07-04T07:25:07;3.33;;;1.80;;
11960;SDS011;6040;49.358;11.140;2022-07-04T07:27:34;3.57;;;1.57;;
11960;SDS011;6040;49.358;11.140;2022-07-04T07:30:01;6.27;;;1.77;;
11960;SDS011;6040;49.358;11.140;2022-07-04T07:32:30;6.70;;;1.73;;
11960;SDS011;6040;49.358;11.140;2022-07-04T07:34:57;3.13;;;1.60;;
11960;SDS011;6040;49.358;11.140;2022-07-04T07:37:24;2.77;;;1.90;;
11960;SDS011;6040;49.358;11.140;2022-07-04T07:39:51;2.53;;;1.77;;
11960;SDS011;6040;49.358;11.140;2022-07-04T07:42:18;2.50;;;1.50;;
11960;SDS011;6040;49.358;11.140;2022-07-04T07:44:45;7.27;;;1.60;;
11960;SDS011;6040;49.358;11.140;2022-07-04T07:47:12;5.60;;;1.70;;
11960;SDS011;6040;49.358;11.140;2022-07-04T07:49:41;5.47;;;1.70;;
11960;SDS011;6040;49.358;11.140;2022-07-04T07:52:09;2.85;;;1.70;;
11960;SDS011;6040;49.358;11.140;2022-07-04T07:54:36;3.87;;;1.70;;
11960;SDS011;6040;49.358;11.140;2022-07-04T07:57:03;2.00;;;1.60;;
11960;SDS011;6040;49.358;11.140;2022-07-04T07:59:30;1.93;;;1.73;;
11960;SDS011;6040;49.358;11.140;2022-07-04T08:01:57;3.47;;;1.70;;
11960;SDS011;6040;49.358;11.140;2022-07-04T08:04:24;4.07;;;1.80;;
11960;SDS011;6040;49.358;11.140;2022-07-04T08:07:00;2.87;;;1.50;;
11960;SDS011;6040;49.358;11.140;2022-07-04T08:09:28;6.20;;;2.17;;
11960;SDS011;6040;49.358;11.140;2022-07-04T08:11:55;1.55;;;1.45;;
11960;SDS011;6040;49.358;11.140;2022-07-04T08:14:22;3.63;;;2.05;;
11960;SDS011;6040;49.358;11.140;2022-07-04T08:16:49;1.83;;;1.60;;
11960;SDS011;6040;49.358;11.140;2022-07-04T08:19:16;3.67;;;1.60;;
11960;SDS011;6040;49.358;11.140;2022-07-04T08:21:43;1.90;;;1.67;;
11960;SDS011;6040;49.358;11.140;2022-07-04T08:24:13;3.58;;;1.77;;
11960;SDS011;6040;49.358;11.140;2022-07-04T08:26:39;2.72;;;1.60;;
11960;SDS011;6040;49.358;11.140;2022-07-04T08:29:06;2.30;;;1.65;;
11960;SDS011;6040;49.358;11.140;2022-07-04T08:31:33;1.90;;;1.70;;
11960;SDS011;6040;49.358;11.140;2022-07-04T08:34:00;4.10;;;1.60;;
11960;SDS011;6040;49.358;11.140;2022-07-04T08:36:27;2.43;;;1.60;;
11960;SDS011;6040;49.358;11.140;2022-07-04T08:38:54;5.25;;;1.90;;
11960;SDS011;6040;49.358;11.140;2022-07-04T08:41:22;3.38;;;1.90;;
11960;SDS011;6040;49.358;11.140;2022-07-04T08:43:49;1.80;;;1.70;;
11960;SDS011;6040;49.358;11.140;2022-07-04T08:46:19;2.58;;;1.75;;
11960;SDS011;6040;49.358;11.140;2022-07-04T08:48:51;2.33;;;1.70;;
11960;SDS011;6040;49.358;11.140;2022-07-04T08:51:20;2.08;;;1.60;;
11960;SDS011;6040;49.358;11.140;2022-07-04T08:53:56;2.00;;;1.52;;
11960;SDS011;6040;49.358;11.140;2022-07-04T08:56:25;4.45;;;1.60;;
11960;SDS011;6040;49.358;11.140;2022-07-04T08:59:10;1.88;;;1.67;;
11960;SDS011;6040;49.358;11.140;2022-07-04T09:01:40;2.38;;;1.60;;
11960;SDS011;6040;49.358;11.140;2022-07-04T09:04:08;5.35;;;1.70;;
11960;SDS011;6040;49.358;11.140;2022-07-04T09:06:37;4.07;;;1.60;;
11960;SDS011;6040;49.358;11.140;2022-07-04T09:09:04;2.65;;;1.60;;
11960;SDS011;6040;49.358;11.140;2022-07-04T09:11:34;4.63;;;1.63;;
11960;SDS011;6040;49.358;11.140;2022-07-04T09:14:01;3.42;;;1.60;;
11960;SDS011;6040;49.358;11.140;2022-07-04T09:16:28;1.95;;;1.58;;
11960;SDS011;6040;49.358;11.140;2022-07-04T09:18:55;1.70;;;1.60;;
11960;SDS011;6040;49.358;11.140;2022-07-04T09:21:23;1.98;;;1.70;;
11960;SDS011;6040;49.358;11.140;2022-07-04T09:24:09;2.80;;;1.80;;
11960;SDS011;6040;49.358;11.140;2022-07-04T09:26:38;2.90;;;1.70;;
11960;SDS011;6040;49.358;11.140;2022-07-04T09:29:09;3.95;;;1.63;;
11960;SDS011;6040;49.358;11.140;2022-07-04T09:31:37;2.40;;;1.60;;
11960;SDS011;6040;49.358;11.140;2022-07-04T09:34:05;3.45;;;1.60;;
11960;SDS011;6040;49.358;11.140;2022-07-04T09:36:33;2.03;;;1.75;;
11960;SDS011;6040;49.358;11.140;2022-07-04T09:39:11;3.83;;;1.95;;
11960;SDS011;6040;49.358;11.140;2022-07-04T09:41:51;5.35;;;1.90;;
11960;SDS011;6040;49.358;11.140;2022-07-04T09:44:20;2.72;;;1.80;;
11960;SDS011;6040;49.358;11.140;2022-07-04T09:46:47;5.53;;;1.60;;
11960;SDS011;6040;49.358;11.140;2022-07-04T09:49:14;4.35;;;1.58;;
11960;SDS011;6040;49.358;11.140;2022-07-04T09:51:42;2.20;;;1.75;;
11960;SDS011;6040;49.358;11.140;2022-07-04T09:54:17;1.98;;;1.58;;
11960;SDS011;6040;49.358;11.140;2022-07-04T09:56:47;1.60;;;1.50;;
11960;SDS011;6040;49.358;11.140;2022-07-04T09:59:17;3.70;;;1.55;;
11960;SDS011;6040;49.358;11.140;2022-07-04T10:01:44;1.70;;;1.60;;
11960;SDS011;6040;49.358;11.140;2022-07-04T10:04:12;4.00;;;1.70;;
11960;SDS011;6040;49.358;11.140;2022-07-04T10:06:39;4.30;;;1.77;;
11960;SDS011;6040;49.358;11.140;2022-07-04T10:09:08;2.15;;;1.70;;
11960;SDS011;6040;49.358;11.140;2022-07-04T10:11:36;5.03;;;1.70;;
11960;SDS011;6040;49.358;11.140;2022-07-04T10:14:04;1.98;;;1.60;;
11960;SDS011;6040;49.358;11.140;2022-07-04T10:16:33;4.47;;;1.58;;
11960;SDS011;6040;49.358;11.140;2022-07-04T10:19:01;2.40;;;1.42;;
11960;SDS011;6040;49.358;11.140;2022-07-04T10:21:29;1.88;;;1.50;;
11960;SDS011;6040;49.358;11.140;2022-07-04T10:23:56;6.53;;;1.67;;
11960;SDS011;6040;49.358;11.140;2022-07-04T10:26:23;4.20;;;1.50;;
11960;SDS011;6040;49.358;11.140;2022-07-04T10:28:51;2.65;;;1.50;;
11960;SDS011;6040;49.358;11.140;2022-07-04T10:31:18;3.63;;;1.58;;
11960;SDS011;6040;49.358;11.140;2022-07-04T10:33:48;3.92;;;1.60;;
11960;SDS011;6040;49.358;11.140;2022-07-04T10:36:17;3.08;;;1.67;;
11960;SDS011;6040;49.358;11.140;2022-07-04T10:38:48;2.10;;;1.52;;
11960;SDS011;6040;49.358;11.140;2022-07-04T10:41:16;3.22;;;1.60;;
11960;SDS011;6040;49.358;11.140;2022-07-04T10:43:56;2.03;;;1.60;;
11960;SDS011;6040;49.358;11.140;2022-07-04T10:46:27;4.82;;;1.45;;
11960;SDS011;6040;49.358;11.140;2022-07-04T10:48:57;4.00;;;1.48;;
11960;SDS011;6040;49.358;11.140;2022-07-04T10:51:38;3.03;;;1.63;;
11960;SDS011;6040;49.358;11.140;2022-07-04T10:54:11;3.25;;;1.65;;
11960;SDS011;6040;49.358;11.140;2022-07-04T10:56:44;3.30;;;1.77;;
11960;SDS011;6040;49.358;11.140;2022-07-04T10:59:13;3.03;;;1.70;;
11960;SDS011;6040;49.358;11.140;2022-07-04T11:01:46;1.67;;;1.30;;
11960;SDS011;6040;49.358;11.140;2022-07-04T11:07:14;1.75;;;1.30;;
11960;SDS011;6040;49.358;11.140;2022-07-04T11:09:43;3.03;;;1.52;;
11960;SDS011;6040;49.358;11.140;2022-07-04T11:12:12;6.82;;;1.52;;
11960;SDS011;6040;49.358;11.140;2022-07-04T11:14:40;4.32;;;1.42;;
11960;SDS011;6040;49.358;11.140;2022-07-04T11:17:10;2.60;;;1.40;;
11960;SDS011;6040;49.358;11.140;2022-07-04T11:19:38;5.05;;;1.67;;
11960;SDS011;6040;49.358;11.140;2022-07-04T11:22:08;1.20;;;1.10;;
11960;SDS011;6040;49.358;11.140;2022-07-04T11:24:36;1.85;;;1.30;;
11960;SDS011;6040;49.358;11.140;2022-07-04T11:27:06;1.90;;;1.40;;
11960;SDS011;6040;49.358;11.140;2022-07-04T11:29:34;1.33;;;1.20;;
11960;SDS011;6040;49.358;11.140;2022-07-04T11:32:01;1.27;;;1.17;;
11960;SDS011;6040;49.358;11.140;2022-07-04T11:34:31;1.60;;;1.30;;
11960;SDS011;6040;49.358;11.140;2022-07-04T11:36:59;2.05;;;1.30;;
11960;SDS011;6040;49.358;11.140;2022-07-04T11:39:29;2.20;;;1.40;;
11960;SDS011;6040;49.358;11.140;2022-07-04T11:41:57;2.17;;;1.33;;
11960;SDS011;6040;49.358;11.140;2022-07-04T11:44:42;1.80;;;1.30;;
11960;SDS011;6040;49.358;11.140;2022-07-04T11:47:31;1.92;;;1.30;;
11960;SDS011;6040;49.358;11.140;2022-07-04T11:50:00;1.83;;;1.30;;
11960;SDS011;6040;49.358;11.140;2022-07-04T11:52:29;1.40;;;1.30;;
11960;SDS011;6040;49.358;11.140;2022-07-04T11:55:07;2.22;;;1.40;;
11960;SDS011;6040;49.358;11.140;2022-07-04T11:57:36;2.58;;;1.38;;
11960;SDS011;6040;49.358;11.140;2022-07-04T12:00:05;1.33;;;1.23;;
11960;SDS011;6040;49.358;11.140;2022-07-04T12:02:34;1.45;;;1.33;;
11960;SDS011;6040;49.358;11.140;2022-07-04T12:05:02;1.60;;;1.48;;
11960;SDS011;6040;49.358;11.140;2022-07-04T12:07:31;2.70;;;1.45;;
11960;SDS011;6040;49.358;11.140;2022-07-04T12:10:07;2.13;;;1.35;;
11960;SDS011;6040;49.358;11.140;2022-07-04T12:12:35;2.78;;;1.27;;
11960;SDS011;6040;49.358;11.140;2022-07-04T12:15:16;2.47;;;1.52;;
11960;SDS011;6040;49.358;11.140;2022-07-04T12:17:43;3.97;;;1.40;;
11960;SDS011;6040;49.358;11.140;2022-07-04T12:20:11;2.92;;;1.45;;
11960;SDS011;6040;49.358;11.140;2022-07-04T12:22:39;3.00;;;1.33;;
11960;SDS011;6040;49.358;11.140;2022-07-04T12:25:18;2.70;;;1.30;;
11960;SDS011;6040;49.358;11.140;2022-07-04T12:27:51;3.50;;;1.40;;
11960;SDS011;6040;49.358;11.140;2022-07-04T12:30:19;1.73;;;1.30;;
11960;SDS011;6040;49.358;11.140;2022-07-04T12:32:47;2.22;;;1.27;;
11960;SDS011;6040;49.358;11.140;2022-07-04T12:35:31;3.10;;;1.27;;
11960;SDS011;6040;49.358;11.140;2022-07-04T12:37:59;3.15;;;1.50;;
11960;SDS011;6040;49.358;11.140;2022-07-04T12:40:29;1.80;;;1.45;;
11960;SDS011;6040;49.358;11.140;2022-07-04T12:42:56;4.40;;;1.52;;
11960;SDS011;6040;49.358;11.140;2022-07-04T12:45:23;5.35;;;1.40;;
11960;SDS011;6040;49.358;11.140;2022-07-04T12:47:51;2.80;;;1.38;;
11960;SDS011;6040;49.358;11.140;2022-07-04T12:50:24;1.30;;;1.20;;
11960;SDS011;6040;49.358;11.140;2022-07-04T12:52:52;4.00;;;1.70;;
11960;SDS011;6040;49.358;11.140;2022-07-04T12:55:19;2.45;;;1.33;;
11960;SDS011;6040;49.358;11.140;2022-07-04T12:57:47;3.65;;;1.42;;
11960;SDS011;6040;49.358;11.140;2022-07-04T13:00:14;2.45;;;1.33;;
11960;SDS011;6040;49.358;11.140;2022-07-04T13:02:41;2.00;;;1.40;;
11960;SDS011;6040;49.358;11.140;2022-07-04T13:05:08;3.97;;;1.40;;
11960;SDS011;6040;49.358;11.140;2022-07-04T13:07:36;1.83;;;1.40;;
11960;SDS011;6040;49.358;11.140;2022-07-04T13:10:03;2.20;;;1.30;;
11960;SDS011;6040;49.358;11.140;2022-07-04T13:12:30;1.80;;;1.50;;
11960;SDS011;6040;49.358;11.140;2022-07-04T13:14:58;3.50;;;1.27;;
11960;SDS011;6040;49.358;11.140;2022-07-04T13:17:25;2.83;;;1.42;;
11960;SDS011;6040;49.358;11.140;2022-07-04T13:19:52;1.77;;;1.30;;
11960;SDS011;6040;49.358;11.140;2022-07-04T13:22:21;2.00;;;1.30;;
11960;SDS011;6040;49.358;11.140;2022-07-04T13:24:49;2.25;;;1.60;;
11960;SDS011;6040;49.358;11.140;2022-07-04T13:27:16;4.88;;;1.40;;
11960;SDS011;6040;49.358;11.140;2022-07-04T13:29:44;1.77;;;1.30;;
11960;SDS011;6040;49.358;11.140;2022-07-04T13:32:12;4.45;;;1.48;;
11960;SDS011;6040;49.358;11.140;2022-07-04T13:34:39;2.05;;;1.40;;
11960;SDS011;6040;49.358;11.140;2022-07-04T13:37:06;3.28;;;1.40;;
11960;SDS011;6040;49.358;11.140;2022-07-04T13:39:33;6.40;;;1.42;;
11960;SDS011;6040;49.358;11.140;2022-07-04T13:42:00;2.17;;;1.30;;
11960;SDS011;6040;49.358;11.140;2022-07-04T13:44:28;2.75;;;1.38;;
11960;SDS011;6040;49.358;11.140;2022-07-04T13:46:56;1.33;;;1.20;;
11960;SDS011;6040;49.358;11.140;2022-07-04T13:49:25;2.25;;;1.40;;
11960;SDS011;6040;49.358;11.140;2022-07-04T13:51:52;2.67;;;1.45;;
11960;SDS011;6040;49.358;11.140;2022-07-04T13:54:19;2.08;;;1.30;;
11960;SDS011;6040;49.358;11.140;2022-07-04T13:56:46;1.20;;;1.10;;
11960;SDS011;6040;49.358;11.140;2022-07-04T13:59:13;2.53;;;1.30;;
11960;SDS011;6040;49.358;11.140;2022-07-04T14:01:40;1.65;;;1.27;;
11960;SDS011;6040;49.358;11.140;2022-07-04T14:04:06;2.58;;;1.40;;
11960;SDS011;6040;49.358;11.140;2022-07-04T14:06:35;1.73;;;1.23;;
11960;SDS011;6040;49.358;11.140;2022-07-04T14:09:01;1.35;;;1.25;;
11960;SDS011;6040;49.358;11.140;2022-07-04T14:11:28;1.70;;;1.38;;
11960;SDS011;6040;49.358;11.140;2022-07-04T14:13:55;3.45;;;1.45;;
11960;SDS011;6040;49.358;11.140;2022-07-04T14:16:22;3.58;;;1.60;;
11960;SDS011;6040;49.358;11.140;2022-07-04T14:18:49;1.70;;;1.38;;
11960;SDS011;6040;49.358;11.140;2022-07-04T14:21:16;1.50;;;1.23;;
11960;SDS011;6040;49.358;11.140;2022-07-04T14:23:44;1.63;;;1.35;;
11960;SDS011;6040;49.358;11.140;2022-07-04T14:26:11;1.80;;;1.38;;
11960;SDS011;6040;49.358;11.140;2022-07-04T14:28:40;3.33;;;1.40;;
11960;SDS011;6040;49.358;11.140;2022-07-04T14:31:09;5.25;;;1.40;;
11960;SDS011;6040;49.358;11.140;2022-07-04T14:33:37;1.73;;;1.25;;
11960;SDS011;6040;49.358;11.140;2022-07-04T14:36:04;4.28;;;1.35;;
11960;SDS011;6040;49.358;11.140;2022-07-04T14:38:32;1.65;;;1.10;;
11960;SDS011;6040;49.358;11.140;2022-07-04T14:41:01;4.00;;;1.20;;
11960;SDS011;6040;49.358;11.140;2022-07-04T14:43:38;1.45;;;1.20;;
11960;SDS011;6040;49.358;11.140;2022-07-04T14:46:06;2.60;;;1.20;;
11960;SDS011;6040;49.358;11.140;2022-07-04T14:48:34;2.05;;;1.27;;
11960;SDS011;6040;49.358;11.140;2022-07-04T14:51:01;1.25;;;1.15;;
11960;SDS011;6040;49.358;11.140;2022-07-04T14:53:28;1.73;;;1.30;;
11960;SDS011;6040;49.358;11.140;2022-07-04T14:55:55;3.83;;;1.20;;
11960;SDS011;6040;49.358;11.140;2022-07-04T14:58:24;2.55;;;1.17;;
11960;SDS011;6040;49.358;11.140;2022-07-04T15:00:51;2.58;;;1.00;;